sensor_id;sensor_type;location;lat;lon;timestamp;P1;durP1;ratioP1;P2;durP2;ratioP2
73136;SDS011;67767;45.636;11.756;2024-01-30T00:01:40;76.10;;;37.85;;
73136;SDS011;67767;45.636;11.756;2024-01-30T00:04:06;77.37;;;37.63;;
73136;SDS011;67767;45.636;11.756;2024-01-30T00:06:32;78.18;;;38.70;;
73136;SDS011;67767;45.636;11.756;2024-01-30T00:08:58;76.70;;;37.60;;
73136;SDS011;67767;45.636;11.756;2024-01-30T00:11:23;79.38;;;38.00;;
73136;SDS011;67767;45.636;11.756;2024-01-30T00:13:50;83.30;;;38.20;;
73136;SDS011;67767;45.636;11.756;2024-01-30T00:16:20;89.82;;;38.33;;
73136;SDS011;67767;45.636;11.756;2024-01-30T00:18:47;76.60;;;37.13;;
73136;SDS011;67767;45.636;11.756;2024-01-30T00:21:13;73.18;;;36.50;;
73136;SDS011;67767;45.636;11.756;2024-01-30T00:23:39;80.77;;;37.53;;
73136;SDS011;67767;45.636;11.756;2024-01-30T00:26:04;82.97;;;39.05;;
73136;SDS011;67767;45.636;11.756;2024-01-30T00:28:31;78.78;;;37.97;;
73136;SDS011;67767;45.636;11.756;2024-01-30T00:30:56;80.03;;;37.77;;
73136;SDS011;67767;45.636;11.756;2024-01-30T00:33:22;84.43;;;40.25;;
73136;SDS011;67767;45.636;11.756;2024-01-30T00:35:48;79.93;;;38.17;;
73136;SDS011;67767;45.636;11.756;2024-01-30T00:38:13;77.00;;;39.97;;
73136;SDS011;67767;45.636;11.756;2024-01-30T00:40:39;73.20;;;37.90;;
73136;SDS011;67767;45.636;11.756;2024-01-30T00:43:05;76.07;;;38.47;;
73136;SDS011;67767;45.636;11.756;2024-01-30T00:45:30;76.20;;;38.13;;
73136;SDS011;67767;45.636;11.756;2024-01-30T00:47:56;76.80;;;39.67;;
73136;SDS011;67767;45.636;11.756;2024-01-30T00:50:22;73.57;;;37.87;;
73136;SDS011;67767;45.636;11.756;2024-01-30T00:52:47;79.33;;;39.17;;
73136;SDS011;67767;45.636;11.756;2024-01-30T00:55:14;69.85;;;38.70;;
73136;SDS011;67767;45.636;11.756;2024-01-30T00:57:40;74.22;;;38.03;;
73136;SDS011;67767;45.636;11.756;2024-01-30T01:00:06;71.63;;;37.20;;
73136;SDS011;67767;45.636;11.756;2024-01-30T01:02:34;75.53;;;38.83;;
73136;SDS011;67767;45.636;11.756;2024-01-30T01:05:00;72.65;;;37.33;;
73136;SDS011;67767;45.636;11.756;2024-01-30T01:07:26;82.13;;;38.08;;
73136;SDS011;67767;45.636;11.756;2024-01-30T01:09:52;71.57;;;37.00;;
73136;SDS011;67767;45.636;11.756;2024-01-30T01:12:18;80.82;;;38.72;;
73136;SDS011;67767;45.636;11.756;2024-01-30T01:14:43;77.53;;;39.60;;
73136;SDS011;67767;45.636;11.756;2024-01-30T01:17:10;73.60;;;38.20;;
73136;SDS011;67767;45.636;11.756;2024-01-30T01:19:36;76.82;;;38.15;;
73136;SDS011;67767;45.636;11.756;2024-01-30T01:22:01;73.30;;;38.83;;
73136;SDS011;67767;45.636;11.756;2024-01-30T01:24:28;71.50;;;38.22;;
73136;SDS011;67767;45.636;11.756;2024-01-30T01:26:56;76.57;;;38.47;;
73136;SDS011;67767;45.636;11.756;2024-01-30T01:29:22;73.15;;;37.00;;
73136;SDS011;67767;45.636;11.756;2024-01-30T01:31:53;71.75;;;38.05;;
73136;SDS011;67767;45.636;11.756;2024-01-30T01:34:22;74.05;;;39.03;;
73136;SDS011;67767;45.636;11.756;2024-01-30T01:36:48;69.53;;;37.45;;
73136;SDS011;67767;45.636;11.756;2024-01-30T01:39:14;68.90;;;36.63;;
73136;SDS011;67767;45.636;11.756;2024-01-30T01:41:40;73.40;;;37.13;;
73136;SDS011;67767;45.636;11.756;2024-01-30T01:44:07;68.68;;;36.17;;
73136;SDS011;67767;45.636;11.756;2024-01-30T01:46:33;70.35;;;36.65;;
73136;SDS011;67767;45.636;11.756;2024-01-30T01:49:03;72.40;;;36.03;;
73136;SDS011;67767;45.636;11.756;2024-01-30T01:51:30;68.45;;;36.80;;
73136;SDS011;67767;45.636;11.756;2024-01-30T01:53:58;71.07;;;37.13;;
73136;SDS011;67767;45.636;11.756;2024-01-30T01:56:27;70.88;;;36.70;;
73136;SDS011;67767;45.636;11.756;2024-01-30T01:58:54;75.50;;;37.33;;
73136;SDS011;67767;45.636;11.756;2024-01-30T02:01:20;72.37;;;36.93;;
73136;SDS011;67767;45.636;11.756;2024-01-30T02:03:47;78.68;;;37.22;;
73136;SDS011;67767;45.636;11.756;2024-01-30T02:06:13;71.22;;;37.95;;
73136;SDS011;67767;45.636;11.756;2024-01-30T02:08:41;70.07;;;35.60;;
73136;SDS011;67767;45.636;11.756;2024-01-30T02:11:07;72.80;;;37.00;;
73136;SDS011;67767;45.636;11.756;2024-01-30T02:13:35;67.20;;;34.45;;
73136;SDS011;67767;45.636;11.756;2024-01-30T02:16:01;58.10;;;32.25;;
73136;SDS011;67767;45.636;11.756;2024-01-30T02:18:26;63.67;;;34.93;;
73136;SDS011;67767;45.636;11.756;2024-01-30T02:20:53;63.10;;;31.92;;
73136;SDS011;67767;45.636;11.756;2024-01-30T02:23:22;60.40;;;34.35;;
73136;SDS011;67767;45.636;11.756;2024-01-30T02:25:52;60.13;;;31.67;;
73136;SDS011;67767;45.636;11.756;2024-01-30T02:28:18;56.72;;;30.55;;
73136;SDS011;67767;45.636;11.756;2024-01-30T02:30:44;59.25;;;32.95;;
73136;SDS011;67767;45.636;11.756;2024-01-30T02:33:11;56.88;;;32.20;;
73136;SDS011;67767;45.636;11.756;2024-01-30T02:35:39;63.58;;;32.58;;
73136;SDS011;67767;45.636;11.756;2024-01-30T02:38:05;60.33;;;31.57;;
73136;SDS011;67767;45.636;11.756;2024-01-30T02:40:31;64.22;;;32.47;;
73136;SDS011;67767;45.636;11.756;2024-01-30T02:42:58;66.23;;;34.03;;
73136;SDS011;67767;45.636;11.756;2024-01-30T02:45:25;59.40;;;32.08;;
73136;SDS011;67767;45.636;11.756;2024-01-30T02:47:51;59.13;;;31.92;;
73136;SDS011;67767;45.636;11.756;2024-01-30T02:50:17;59.43;;;33.70;;
73136;SDS011;67767;45.636;11.756;2024-01-30T02:52:42;66.32;;;34.28;;
73136;SDS011;67767;45.636;11.756;2024-01-30T02:55:11;65.40;;;35.40;;
73136;SDS011;67767;45.636;11.756;2024-01-30T02:57:37;62.43;;;34.10;;
73136;SDS011;67767;45.636;11.756;2024-01-30T03:00:03;65.25;;;35.25;;
73136;SDS011;67767;45.636;11.756;2024-01-30T03:02:31;66.35;;;34.65;;
73136;SDS011;67767;45.636;11.756;2024-01-30T03:04:59;65.63;;;35.10;;
73136;SDS011;67767;45.636;11.756;2024-01-30T03:07:25;77.60;;;36.93;;
73136;SDS011;67767;45.636;11.756;2024-01-30T03:09:51;101.72;;;45.45;;
73136;SDS011;67767;45.636;11.756;2024-01-30T03:12:17;115.18;;;45.83;;
73136;SDS011;67767;45.636;11.756;2024-01-30T03:14:43;137.90;;;52.40;;
73136;SDS011;67767;45.636;11.756;2024-01-30T03:17:08;91.95;;;41.53;;
73136;SDS011;67767;45.636;11.756;2024-01-30T03:19:34;107.40;;;45.37;;
73136;SDS011;67767;45.636;11.756;2024-01-30T03:22:00;100.63;;;43.20;;
73136;SDS011;67767;45.636;11.756;2024-01-30T03:24:25;110.80;;;45.60;;
73136;SDS011;67767;45.636;11.756;2024-01-30T03:26:51;103.20;;;45.53;;
73136;SDS011;67767;45.636;11.756;2024-01-30T03:29:17;104.00;;;44.40;;
73136;SDS011;67767;45.636;11.756;2024-01-30T03:31:43;90.87;;;43.47;;
73136;SDS011;67767;45.636;11.756;2024-01-30T03:34:09;77.82;;;38.03;;
73136;SDS011;67767;45.636;11.756;2024-01-30T03:36:34;76.07;;;38.60;;
73136;SDS011;67767;45.636;11.756;2024-01-30T03:39:00;104.47;;;47.43;;
73136;SDS011;67767;45.636;11.756;2024-01-30T03:41:26;79.80;;;40.20;;
73136;SDS011;67767;45.636;11.756;2024-01-30T03:43:52;95.87;;;43.70;;
73136;SDS011;67767;45.636;11.756;2024-01-30T03:46:17;80.30;;;38.23;;
73136;SDS011;67767;45.636;11.756;2024-01-30T03:48:43;86.53;;;40.10;;
73136;SDS011;67767;45.636;11.756;2024-01-30T03:51:10;83.87;;;41.13;;
73136;SDS011;67767;45.636;11.756;2024-01-30T03:53:43;93.78;;;44.30;;
73136;SDS011;67767;45.636;11.756;2024-01-30T03:56:09;89.18;;;41.95;;
73136;SDS011;67767;45.636;11.756;2024-01-30T03:58:35;84.90;;;38.30;;
73136;SDS011;67767;45.636;11.756;2024-01-30T04:01:01;75.23;;;39.20;;
73136;SDS011;67767;45.636;11.756;2024-01-30T04:03:27;71.18;;;38.33;;
73136;SDS011;67767;45.636;11.756;2024-01-30T04:05:52;69.97;;;36.40;;
73136;SDS011;67767;45.636;11.756;2024-01-30T04:08:19;81.38;;;39.30;;
73136;SDS011;67767;45.636;11.756;2024-01-30T04:10:45;79.40;;;37.88;;
73136;SDS011;67767;45.636;11.756;2024-01-30T04:13:11;73.43;;;37.10;;
73136;SDS011;67767;45.636;11.756;2024-01-30T04:15:37;75.97;;;37.73;;
73136;SDS011;67767;45.636;11.756;2024-01-30T04:18:03;73.27;;;36.43;;
73136;SDS011;67767;45.636;11.756;2024-01-30T04:20:29;74.68;;;37.45;;
73136;SDS011;67767;45.636;11.756;2024-01-30T04:22:55;80.57;;;37.03;;
73136;SDS011;67767;45.636;11.756;2024-01-30T04:25:21;77.90;;;36.73;;
73136;SDS011;67767;45.636;11.756;2024-01-30T04:27:46;72.93;;;36.03;;
73136;SDS011;67767;45.636;11.756;2024-01-30T04:30:13;67.80;;;35.90;;
73136;SDS011;67767;45.636;11.756;2024-01-30T04:32:38;77.03;;;37.00;;
73136;SDS011;67767;45.636;11.756;2024-01-30T04:35:05;70.28;;;35.53;;
73136;SDS011;67767;45.636;11.756;2024-01-30T04:37:30;71.25;;;37.58;;
73136;SDS011;67767;45.636;11.756;2024-01-30T04:39:56;75.17;;;38.83;;
73136;SDS011;67767;45.636;11.756;2024-01-30T04:42:22;77.77;;;37.60;;
73136;SDS011;67767;45.636;11.756;2024-01-30T04:44:48;75.78;;;38.17;;
73136;SDS011;67767;45.636;11.756;2024-01-30T04:47:14;81.90;;;39.50;;
73136;SDS011;67767;45.636;11.756;2024-01-30T04:49:39;77.18;;;39.55;;
73136;SDS011;67767;45.636;11.756;2024-01-30T04:52:05;76.13;;;38.67;;
73136;SDS011;67767;45.636;11.756;2024-01-30T04:54:32;84.00;;;40.53;;
73136;SDS011;67767;45.636;11.756;2024-01-30T04:56:58;87.32;;;42.90;;
73136;SDS011;67767;45.636;11.756;2024-01-30T04:59:23;87.37;;;41.93;;
73136;SDS011;67767;45.636;11.756;2024-01-30T05:01:49;82.10;;;40.53;;
73136;SDS011;67767;45.636;11.756;2024-01-30T05:04:15;78.68;;;37.63;;
73136;SDS011;67767;45.636;11.756;2024-01-30T05:06:41;74.13;;;38.93;;
73136;SDS011;67767;45.636;11.756;2024-01-30T05:09:06;79.78;;;38.95;;
73136;SDS011;67767;45.636;11.756;2024-01-30T05:11:36;87.30;;;40.65;;
73136;SDS011;67767;45.636;11.756;2024-01-30T05:14:05;84.13;;;39.13;;
73136;SDS011;67767;45.636;11.756;2024-01-30T05:16:32;82.72;;;40.25;;
73136;SDS011;67767;45.636;11.756;2024-01-30T05:18:58;80.18;;;41.08;;
73136;SDS011;67767;45.636;11.756;2024-01-30T05:21:24;83.60;;;40.25;;
73136;SDS011;67767;45.636;11.756;2024-01-30T05:23:49;78.70;;;39.10;;
73136;SDS011;67767;45.636;11.756;2024-01-30T05:26:15;79.97;;;38.63;;
73136;SDS011;67767;45.636;11.756;2024-01-30T05:28:41;78.47;;;37.28;;
73136;SDS011;67767;45.636;11.756;2024-01-30T05:31:09;79.57;;;37.97;;
73136;SDS011;67767;45.636;11.756;2024-01-30T05:33:35;76.53;;;38.27;;
73136;SDS011;67767;45.636;11.756;2024-01-30T05:36:01;70.20;;;37.83;;
73136;SDS011;67767;45.636;11.756;2024-01-30T05:38:26;70.17;;;36.67;;
73136;SDS011;67767;45.636;11.756;2024-01-30T05:40:52;82.28;;;38.30;;
73136;SDS011;67767;45.636;11.756;2024-01-30T05:43:18;80.73;;;39.33;;
73136;SDS011;67767;45.636;11.756;2024-01-30T05:45:43;82.50;;;39.13;;
73136;SDS011;67767;45.636;11.756;2024-01-30T05:48:09;73.47;;;37.00;;
73136;SDS011;67767;45.636;11.756;2024-01-30T05:50:35;75.22;;;39.00;;
73136;SDS011;67767;45.636;11.756;2024-01-30T05:53:00;69.50;;;34.90;;
73136;SDS011;67767;45.636;11.756;2024-01-30T05:55:26;73.75;;;36.38;;
73136;SDS011;67767;45.636;11.756;2024-01-30T05:57:52;73.47;;;34.77;;
73136;SDS011;67767;45.636;11.756;2024-01-30T06:00:18;71.87;;;35.23;;
73136;SDS011;67767;45.636;11.756;2024-01-30T06:02:44;71.33;;;36.57;;
73136;SDS011;67767;45.636;11.756;2024-01-30T06:05:09;77.03;;;37.33;;
73136;SDS011;67767;45.636;11.756;2024-01-30T06:07:35;69.20;;;36.20;;
73136;SDS011;67767;45.636;11.756;2024-01-30T06:10:01;73.90;;;35.17;;
73136;SDS011;67767;45.636;11.756;2024-01-30T06:12:27;88.97;;;39.47;;
73136;SDS011;67767;45.636;11.756;2024-01-30T06:14:53;78.95;;;38.03;;
73136;SDS011;67767;45.636;11.756;2024-01-30T06:17:22;72.72;;;38.50;;
73136;SDS011;67767;45.636;11.756;2024-01-30T06:19:48;65.20;;;36.42;;
73136;SDS011;67767;45.636;11.756;2024-01-30T06:22:13;71.37;;;36.97;;
73136;SDS011;67767;45.636;11.756;2024-01-30T06:24:39;67.95;;;34.55;;
73136;SDS011;67767;45.636;11.756;2024-01-30T06:27:05;74.53;;;38.47;;
73136;SDS011;67767;45.636;11.756;2024-01-30T06:29:30;74.37;;;38.27;;
73136;SDS011;67767;45.636;11.756;2024-01-30T06:31:56;80.97;;;39.42;;
73136;SDS011;67767;45.636;11.756;2024-01-30T06:34:22;78.72;;;37.60;;
73136;SDS011;67767;45.636;11.756;2024-01-30T06:36:48;67.87;;;35.33;;
73136;SDS011;67767;45.636;11.756;2024-01-30T06:39:13;71.50;;;34.60;;
73136;SDS011;67767;45.636;11.756;2024-01-30T06:41:39;67.03;;;33.70;;
73136;SDS011;67767;45.636;11.756;2024-01-30T06:44:05;60.63;;;32.47;;
73136;SDS011;67767;45.636;11.756;2024-01-30T06:46:31;66.22;;;33.15;;
73136;SDS011;67767;45.636;11.756;2024-01-30T06:48:57;80.70;;;35.95;;
73136;SDS011;67767;45.636;11.756;2024-01-30T06:51:23;75.22;;;35.40;;
73136;SDS011;67767;45.636;11.756;2024-01-30T06:53:49;74.27;;;36.57;;
73136;SDS011;67767;45.636;11.756;2024-01-30T06:56:15;83.15;;;38.97;;
73136;SDS011;67767;45.636;11.756;2024-01-30T06:58:41;78.53;;;38.17;;
73136;SDS011;67767;45.636;11.756;2024-01-30T07:01:07;80.65;;;37.55;;
73136;SDS011;67767;45.636;11.756;2024-01-30T07:03:33;75.33;;;38.70;;
73136;SDS011;67767;45.636;11.756;2024-01-30T07:05:58;69.03;;;31.52;;
73136;SDS011;67767;45.636;11.756;2024-01-30T07:08:24;64.87;;;31.67;;
73136;SDS011;67767;45.636;11.756;2024-01-30T07:10:50;61.85;;;29.20;;
73136;SDS011;67767;45.636;11.756;2024-01-30T07:13:20;68.63;;;32.53;;
73136;SDS011;67767;45.636;11.756;2024-01-30T07:15:45;74.47;;;36.63;;
73136;SDS011;67767;45.636;11.756;2024-01-30T07:18:11;74.43;;;37.33;;
73136;SDS011;67767;45.636;11.756;2024-01-30T07:20:38;68.18;;;36.88;;
73136;SDS011;67767;45.636;11.756;2024-01-30T07:23:11;70.05;;;36.25;;
73136;SDS011;67767;45.636;11.756;2024-01-30T07:25:39;63.70;;;33.55;;
73136;SDS011;67767;45.636;11.756;2024-01-30T07:28:06;58.50;;;31.03;;
73136;SDS011;67767;45.636;11.756;2024-01-30T07:30:35;57.80;;;29.92;;
73136;SDS011;67767;45.636;11.756;2024-01-30T07:33:02;57.47;;;28.10;;
73136;SDS011;67767;45.636;11.756;2024-01-30T07:35:27;59.60;;;27.95;;
73136;SDS011;67767;45.636;11.756;2024-01-30T07:37:53;55.53;;;28.07;;
73136;SDS011;67767;45.636;11.756;2024-01-30T07:40:19;58.35;;;29.48;;
73136;SDS011;67767;45.636;11.756;2024-01-30T07:42:45;55.73;;;27.37;;
73136;SDS011;67767;45.636;11.756;2024-01-30T07:45:10;50.70;;;27.48;;
73136;SDS011;67767;45.636;11.756;2024-01-30T07:47:36;52.42;;;25.98;;
73136;SDS011;67767;45.636;11.756;2024-01-30T07:50:02;51.80;;;27.33;;
73136;SDS011;67767;45.636;11.756;2024-01-30T07:52:28;55.85;;;29.70;;
73136;SDS011;67767;45.636;11.756;2024-01-30T07:54:54;53.90;;;29.60;;
73136;SDS011;67767;45.636;11.756;2024-01-30T07:57:20;47.63;;;26.02;;
73136;SDS011;67767;45.636;11.756;2024-01-30T07:59:46;49.30;;;25.40;;
73136;SDS011;67767;45.636;11.756;2024-01-30T08:02:12;46.67;;;23.83;;
73136;SDS011;67767;45.636;11.756;2024-01-30T08:04:38;44.50;;;21.63;;
73136;SDS011;67767;45.636;11.756;2024-01-30T08:07:04;41.28;;;22.25;;
73136;SDS011;67767;45.636;11.756;2024-01-30T08:09:29;39.87;;;22.63;;
73136;SDS011;67767;45.636;11.756;2024-01-30T08:11:55;39.80;;;21.73;;
73136;SDS011;67767;45.636;11.756;2024-01-30T08:14:21;41.87;;;22.70;;
73136;SDS011;67767;45.636;11.756;2024-01-30T08:16:47;45.67;;;23.50;;
73136;SDS011;67767;45.636;11.756;2024-01-30T08:19:14;40.20;;;21.65;;
73136;SDS011;67767;45.636;11.756;2024-01-30T08:21:39;44.53;;;22.27;;
73136;SDS011;67767;45.636;11.756;2024-01-30T08:24:05;39.80;;;21.33;;
73136;SDS011;67767;45.636;11.756;2024-01-30T08:26:32;39.78;;;21.25;;
73136;SDS011;67767;45.636;11.756;2024-01-30T08:28:58;37.67;;;21.42;;
73136;SDS011;67767;45.636;11.756;2024-01-30T08:31:23;39.63;;;21.87;;
73136;SDS011;67767;45.636;11.756;2024-01-30T08:33:49;40.47;;;21.05;;
73136;SDS011;67767;45.636;11.756;2024-01-30T08:36:15;41.10;;;20.97;;
73136;SDS011;67767;45.636;11.756;2024-01-30T08:38:41;38.58;;;20.58;;
73136;SDS011;67767;45.636;11.756;2024-01-30T08:41:10;42.88;;;21.80;;
73136;SDS011;67767;45.636;11.756;2024-01-30T08:43:35;40.47;;;21.93;;
73136;SDS011;67767;45.636;11.756;2024-01-30T08:46:01;38.72;;;21.08;;
73136;SDS011;67767;45.636;11.756;2024-01-30T08:48:28;43.78;;;23.80;;
73136;SDS011;67767;45.636;11.756;2024-01-30T08:50:54;44.07;;;22.40;;
73136;SDS011;67767;45.636;11.756;2024-01-30T08:53:20;39.25;;;22.50;;
73136;SDS011;67767;45.636;11.756;2024-01-30T08:55:45;37.17;;;21.03;;
73136;SDS011;67767;45.636;11.756;2024-01-30T08:58:11;40.47;;;21.95;;
73136;SDS011;67767;45.636;11.756;2024-01-30T09:00:37;41.42;;;21.88;;
73136;SDS011;67767;45.636;11.756;2024-01-30T09:03:03;38.30;;;21.50;;
73136;SDS011;67767;45.636;11.756;2024-01-30T09:05:29;37.47;;;20.92;;
73136;SDS011;67767;45.636;11.756;2024-01-30T09:07:55;41.73;;;22.87;;
73136;SDS011;67767;45.636;11.756;2024-01-30T09:10:21;36.97;;;21.95;;
73136;SDS011;67767;45.636;11.756;2024-01-30T09:12:47;42.92;;;23.63;;
73136;SDS011;67767;45.636;11.756;2024-01-30T09:15:13;38.40;;;21.90;;
73136;SDS011;67767;45.636;11.756;2024-01-30T09:17:39;36.83;;;20.73;;
73136;SDS011;67767;45.636;11.756;2024-01-30T09:20:05;39.75;;;21.52;;
73136;SDS011;67767;45.636;11.756;2024-01-30T09:22:31;35.40;;;21.75;;
73136;SDS011;67767;45.636;11.756;2024-01-30T09:24:57;36.40;;;20.37;;
73136;SDS011;67767;45.636;11.756;2024-01-30T09:27:23;32.63;;;19.80;;
73136;SDS011;67767;45.636;11.756;2024-01-30T09:29:49;37.95;;;21.05;;
73136;SDS011;67767;45.636;11.756;2024-01-30T09:32:14;39.27;;;21.10;;
73136;SDS011;67767;45.636;11.756;2024-01-30T09:34:40;37.17;;;21.17;;
73136;SDS011;67767;45.636;11.756;2024-01-30T09:37:06;38.27;;;20.97;;
73136;SDS011;67767;45.636;11.756;2024-01-30T09:39:32;33.92;;;20.25;;
73136;SDS011;67767;45.636;11.756;2024-01-30T09:44:43;33.63;;;18.88;;
73136;SDS011;67767;45.636;11.756;2024-01-30T09:47:09;33.60;;;19.20;;
73136;SDS011;67767;45.636;11.756;2024-01-30T09:49:35;32.33;;;19.48;;
73136;SDS011;67767;45.636;11.756;2024-01-30T09:52:02;32.42;;;18.00;;
73136;SDS011;67767;45.636;11.756;2024-01-30T09:54:31;29.05;;;18.52;;
73136;SDS011;67767;45.636;11.756;2024-01-30T09:56:59;31.05;;;17.70;;
73136;SDS011;67767;45.636;11.756;2024-01-30T09:59:24;28.43;;;17.13;;
73136;SDS011;67767;45.636;11.756;2024-01-30T10:01:50;26.57;;;17.40;;
73136;SDS011;67767;45.636;11.756;2024-01-30T10:04:16;25.50;;;15.80;;
73136;SDS011;67767;45.636;11.756;2024-01-30T10:06:42;26.35;;;16.00;;
73136;SDS011;67767;45.636;11.756;2024-01-30T10:09:08;33.47;;;17.00;;
73136;SDS011;67767;45.636;11.756;2024-01-30T10:11:34;26.10;;;16.77;;
73136;SDS011;67767;45.636;11.756;2024-01-30T10:14:01;30.80;;;17.40;;
73136;SDS011;67767;45.636;11.756;2024-01-30T10:16:27;27.23;;;17.77;;
73136;SDS011;67767;45.636;11.756;2024-01-30T10:18:53;29.85;;;17.83;;
73136;SDS011;67767;45.636;11.756;2024-01-30T10:21:19;31.53;;;17.47;;
73136;SDS011;67767;45.636;11.756;2024-01-30T10:23:44;34.53;;;17.98;;
73136;SDS011;67767;45.636;11.756;2024-01-30T10:26:10;36.03;;;17.27;;
73136;SDS011;67767;45.636;11.756;2024-01-30T10:28:36;29.03;;;17.07;;
73136;SDS011;67767;45.636;11.756;2024-01-30T10:31:02;33.27;;;18.67;;
73136;SDS011;67767;45.636;11.756;2024-01-30T10:33:30;32.97;;;18.15;;
73136;SDS011;67767;45.636;11.756;2024-01-30T10:36:00;32.30;;;17.13;;
73136;SDS011;67767;45.636;11.756;2024-01-30T10:38:30;26.10;;;16.88;;
73136;SDS011;67767;45.636;11.756;2024-01-30T10:40:57;30.90;;;17.40;;
73136;SDS011;67767;45.636;11.756;2024-01-30T10:43:27;32.95;;;18.20;;
73136;SDS011;67767;45.636;11.756;2024-01-30T10:46:18;34.20;;;16.40;;
73136;SDS011;67767;45.636;11.756;2024-01-30T10:48:46;27.50;;;15.93;;
73136;SDS011;67767;45.636;11.756;2024-01-30T10:51:23;26.13;;;15.88;;
73136;SDS011;67767;45.636;11.756;2024-01-30T10:53:53;29.33;;;16.63;;
73136;SDS011;67767;45.636;11.756;2024-01-30T10:56:23;29.02;;;15.13;;
73136;SDS011;67767;45.636;11.756;2024-01-30T10:58:50;26.35;;;15.43;;
73136;SDS011;67767;45.636;11.756;2024-01-30T11:01:20;29.30;;;17.02;;
73136;SDS011;67767;45.636;11.756;2024-01-30T11:03:53;23.65;;;15.52;;
73136;SDS011;67767;45.636;11.756;2024-01-30T11:06:22;29.77;;;15.33;;
73136;SDS011;67767;45.636;11.756;2024-01-30T11:09:04;25.05;;;15.60;;
73136;SDS011;67767;45.636;11.756;2024-01-30T11:14:37;29.98;;;18.00;;
73136;SDS011;67767;45.636;11.756;2024-01-30T11:17:05;29.20;;;16.50;;
73136;SDS011;67767;45.636;11.756;2024-01-30T11:19:31;27.97;;;15.70;;
73136;SDS011;67767;45.636;11.756;2024-01-30T11:21:58;26.00;;;16.20;;
73136;SDS011;67767;45.636;11.756;2024-01-30T11:24:25;27.15;;;15.68;;
73136;SDS011;67767;45.636;11.756;2024-01-30T11:26:55;23.85;;;14.75;;
73136;SDS011;67767;45.636;11.756;2024-01-30T11:29:26;36.72;;;16.00;;
73136;SDS011;67767;45.636;11.756;2024-01-30T11:31:56;24.47;;;14.43;;
73136;SDS011;67767;45.636;11.756;2024-01-30T11:34:23;25.00;;;14.32;;
73136;SDS011;67767;45.636;11.756;2024-01-30T11:37:03;24.58;;;14.43;;
73136;SDS011;67767;45.636;11.756;2024-01-30T11:39:32;27.38;;;15.63;;
73136;SDS011;67767;45.636;11.756;2024-01-30T11:41:58;30.53;;;16.57;;
73136;SDS011;67767;45.636;11.756;2024-01-30T11:44:24;35.15;;;15.75;;
73136;SDS011;67767;45.636;11.756;2024-01-30T11:46:51;25.25;;;16.13;;
73136;SDS011;67767;45.636;11.756;2024-01-30T11:49:17;28.02;;;16.52;;
73136;SDS011;67767;45.636;11.756;2024-01-30T11:51:45;27.73;;;16.53;;
73136;SDS011;67767;45.636;11.756;2024-01-30T11:54:10;30.17;;;16.73;;
73136;SDS011;67767;45.636;11.756;2024-01-30T11:56:37;38.85;;;18.17;;
73136;SDS011;67767;45.636;11.756;2024-01-30T11:59:03;28.95;;;17.85;;
73136;SDS011;67767;45.636;11.756;2024-01-30T12:01:29;50.90;;;19.57;;
73136;SDS011;67767;45.636;11.756;2024-01-30T12:03:56;28.10;;;17.75;;
73136;SDS011;67767;45.636;11.756;2024-01-30T12:06:23;29.13;;;17.27;;
73136;SDS011;67767;45.636;11.756;2024-01-30T12:08:58;28.03;;;17.70;;
73136;SDS011;67767;45.636;11.756;2024-01-30T12:11:25;31.33;;;17.43;;
73136;SDS011;67767;45.636;11.756;2024-01-30T12:13:52;30.25;;;17.77;;
73136;SDS011;67767;45.636;11.756;2024-01-30T12:16:18;31.13;;;17.88;;
73136;SDS011;67767;45.636;11.756;2024-01-30T12:18:44;32.53;;;18.17;;
73136;SDS011;67767;45.636;11.756;2024-01-30T12:21:10;31.70;;;18.40;;
73136;SDS011;67767;45.636;11.756;2024-01-30T12:23:36;30.00;;;18.58;;
73136;SDS011;67767;45.636;11.756;2024-01-30T12:26:02;28.02;;;16.98;;
73136;SDS011;67767;45.636;11.756;2024-01-30T12:28:32;32.90;;;18.53;;
73136;SDS011;67767;45.636;11.756;2024-01-30T12:31:04;33.38;;;18.10;;
73136;SDS011;67767;45.636;11.756;2024-01-30T12:33:30;33.22;;;19.25;;
73136;SDS011;67767;45.636;11.756;2024-01-30T12:35:56;29.02;;;17.90;;
73136;SDS011;67767;45.636;11.756;2024-01-30T12:38:26;36.95;;;19.45;;
73136;SDS011;67767;45.636;11.756;2024-01-30T12:40:55;39.13;;;18.87;;
73136;SDS011;67767;45.636;11.756;2024-01-30T12:43:21;35.15;;;18.98;;
73136;SDS011;67767;45.636;11.756;2024-01-30T12:45:47;31.73;;;18.48;;
73136;SDS011;67767;45.636;11.756;2024-01-30T12:48:13;32.63;;;18.90;;
73136;SDS011;67767;45.636;11.756;2024-01-30T12:50:39;37.47;;;22.73;;
73136;SDS011;67767;45.636;11.756;2024-01-30T12:53:04;31.83;;;19.37;;
73136;SDS011;67767;45.636;11.756;2024-01-30T12:55:31;35.47;;;18.83;;
73136;SDS011;67767;45.636;11.756;2024-01-30T12:57:56;35.60;;;18.95;;
73136;SDS011;67767;45.636;11.756;2024-01-30T13:00:22;32.67;;;19.53;;
73136;SDS011;67767;45.636;11.756;2024-01-30T13:02:48;29.97;;;17.70;;
73136;SDS011;67767;45.636;11.756;2024-01-30T13:05:14;27.57;;;18.47;;
73136;SDS011;67767;45.636;11.756;2024-01-30T13:07:39;31.60;;;19.50;;
73136;SDS011;67767;45.636;11.756;2024-01-30T13:10:05;28.60;;;19.23;;
73136;SDS011;67767;45.636;11.756;2024-01-30T13:12:31;29.63;;;18.65;;
73136;SDS011;67767;45.636;11.756;2024-01-30T13:15:00;31.10;;;18.55;;
73136;SDS011;67767;45.636;11.756;2024-01-30T13:17:28;31.10;;;19.88;;
73136;SDS011;67767;45.636;11.756;2024-01-30T13:19:54;30.87;;;20.30;;
73136;SDS011;67767;45.636;11.756;2024-01-30T13:22:20;31.23;;;20.30;;
73136;SDS011;67767;45.636;11.756;2024-01-30T13:24:49;28.42;;;19.15;;
73136;SDS011;67767;45.636;11.756;2024-01-30T13:27:15;29.70;;;19.40;;
73136;SDS011;67767;45.636;11.756;2024-01-30T13:29:40;30.52;;;19.73;;
73136;SDS011;67767;45.636;11.756;2024-01-30T13:32:06;30.43;;;19.77;;
73136;SDS011;67767;45.636;11.756;2024-01-30T13:34:32;29.23;;;19.45;;
73136;SDS011;67767;45.636;11.756;2024-01-30T13:36:58;33.00;;;20.03;;
73136;SDS011;67767;45.636;11.756;2024-01-30T13:39:23;32.13;;;19.85;;
73136;SDS011;67767;45.636;11.756;2024-01-30T13:41:49;32.93;;;21.17;;
73136;SDS011;67767;45.636;11.756;2024-01-30T13:44:15;33.03;;;20.80;;
73136;SDS011;67767;45.636;11.756;2024-01-30T13:46:42;33.80;;;20.38;;
73136;SDS011;67767;45.636;11.756;2024-01-30T13:49:08;31.10;;;20.30;;
73136;SDS011;67767;45.636;11.756;2024-01-30T13:51:34;32.03;;;20.13;;
73136;SDS011;67767;45.636;11.756;2024-01-30T13:54:00;49.47;;;23.37;;
73136;SDS011;67767;45.636;11.756;2024-01-30T13:56:25;30.13;;;19.67;;
73136;SDS011;67767;45.636;11.756;2024-01-30T13:58:52;30.25;;;18.45;;
73136;SDS011;67767;45.636;11.756;2024-01-30T14:01:18;31.80;;;19.58;;
73136;SDS011;67767;45.636;11.756;2024-01-30T14:03:44;37.00;;;19.80;;
73136;SDS011;67767;45.636;11.756;2024-01-30T14:06:10;29.88;;;19.88;;
73136;SDS011;67767;45.636;11.756;2024-01-30T14:08:36;34.05;;;20.80;;
73136;SDS011;67767;45.636;11.756;2024-01-30T14:11:02;30.87;;;20.80;;